createdAt,value
2022-12-27T00:01:18.721Z,2.70
2022-12-27T00:02:41.060Z,2.73
2022-12-27T00:04:03.152Z,2.20
2022-12-27T00:05:25.268Z,2.23
2022-12-27T00:06:47.347Z,1.80
2022-12-27T00:08:09.652Z,2.00
2022-12-27T00:09:31.950Z,1.83
2022-12-27T00:10:54.119Z,1.87
2022-12-27T00:12:16.218Z,1.90
2022-12-27T00:13:38.685Z,1.80
2022-12-27T00:15:01.004Z,1.80
2022-12-27T00:16:23.151Z,1.40
2022-12-27T00:17:45.302Z,1.60
2022-12-27T00:19:07.374Z,2.03
2022-12-27T00:20:29.450Z,2.83
2022-12-27T00:21:51.492Z,1.70
2022-12-27T00:23:13.528Z,2.30
2022-12-27T00:24:35.681Z,1.83
2022-12-27T00:26:02.307Z,2.00
2022-12-27T00:27:24.402Z,2.27
2022-12-27T00:28:46.901Z,1.60
2022-12-27T00:30:09.613Z,2.80
2022-12-27T00:31:32.853Z,1.63
2022-12-27T00:32:54.972Z,2.30
2022-12-27T00:34:17.143Z,2.70
2022-12-27T00:35:39.646Z,1.77
2022-12-27T00:37:02.958Z,1.70
2022-12-27T00:38:25.141Z,1.60
2022-12-27T00:39:47.634Z,1.70
2022-12-27T00:41:09.958Z,1.73
2022-12-27T00:42:32.006Z,2.80
2022-12-27T00:43:54.231Z,2.00
2022-12-27T00:45:16.317Z,1.80
2022-12-27T00:46:38.458Z,2.67
2022-12-27T00:48:00.620Z,1.80
2022-12-27T00:49:22.640Z,1.93
2022-12-27T00:50:45.420Z,2.03
2022-12-27T00:52:07.493Z,1.80
2022-12-27T00:53:30.267Z,1.30
2022-12-27T00:54:52.336Z,1.97
2022-12-27T00:56:24.562Z,2.87
2022-12-27T00:57:46.808Z,1.70
2022-12-27T00:59:11.531Z,1.67
2022-12-27T01:00:33.599Z,1.77
2022-12-27T01:01:55.889Z,1.97
2022-12-27T01:03:19.458Z,1.80
2022-12-27T01:04:41.550Z,2.17
2022-12-27T01:06:10.950Z,2.23
2022-12-27T01:07:33.155Z,1.80
2022-12-27T01:08:56.424Z,1.40
2022-12-27T01:10:18.597Z,2.27
2022-12-27T01:11:41.719Z,1.43
2022-12-27T01:13:04.533Z,1.83
2022-12-27T01:14:26.564Z,1.70
2022-12-27T01:15:48.712Z,1.90
2022-12-27T01:17:10.789Z,1.80
2022-12-27T01:18:33.797Z,1.80
2022-12-27T01:19:56.125Z,1.70
2022-12-27T01:21:20.112Z,2.23
2022-12-27T01:22:42.157Z,1.67
2022-12-27T01:24:05.763Z,2.33
2022-12-27T01:25:27.770Z,1.93
2022-12-27T01:26:49.837Z,1.60
2022-12-27T01:28:11.871Z,1.60
2022-12-27T01:29:33.965Z,1.97
2022-12-27T01:30:56.011Z,1.93
2022-12-27T01:32:18.105Z,2.07
2022-12-27T01:33:40.214Z,1.70
2022-12-27T01:35:02.448Z,2.40
2022-12-27T01:36:26.092Z,1.60
2022-12-27T01:37:48.224Z,1.63
2022-12-27T01:39:11.906Z,1.13
2022-12-27T01:40:36.849Z,1.73
2022-12-27T01:42:17.489Z,1.87
2022-12-27T01:43:39.544Z,1.77
2022-12-27T01:45:02.092Z,2.10
2022-12-27T01:46:24.222Z,2.27
2022-12-27T01:47:55.490Z,2.10
2022-12-27T01:49:17.659Z,2.03
2022-12-27T01:50:53.324Z,2.27
2022-12-27T01:52:15.718Z,1.60
2022-12-27T01:53:42.389Z,1.50
2022-12-27T01:55:22.889Z,2.57
2022-12-27T01:56:44.997Z,1.83
2022-12-27T01:58:32.076Z,2.10
2022-12-27T01:59:54.142Z,1.67
2022-12-27T02:01:39.776Z,2.43
2022-12-27T02:03:04.716Z,1.90
2022-12-27T02:04:30.869Z,1.70
2022-12-27T02:05:53.513Z,2.10
2022-12-27T02:07:15.611Z,2.13
2022-12-27T02:08:56.166Z,2.70
2022-12-27T02:10:18.399Z,1.87
2022-12-27T02:11:53.163Z,2.00
2022-12-27T02:13:16.321Z,1.80
2022-12-27T02:14:43.016Z,2.13
2022-12-27T02:16:17.233Z,2.13
2022-12-27T02:17:39.424Z,1.60
2022-12-27T02:19:01.572Z,1.50
2022-12-27T02:20:25.829Z,1.93
2022-12-27T02:22:15.315Z,1.67
2022-12-27T02:24:14.798Z,1.63
2022-12-27T02:25:54.624Z,1.70
2022-12-27T02:27:44.726Z,1.90
2022-12-27T02:29:14.805Z,2.00
2022-12-27T02:30:37.165Z,1.90
2022-12-27T02:32:37.164Z,1.47
2022-12-27T02:34:02.728Z,1.90
2022-12-27T02:35:41.621Z,2.00
2022-12-27T02:37:09.734Z,1.30
2022-12-27T02:38:35.370Z,1.90
2022-12-27T02:40:19.888Z,2.03
2022-12-27T02:42:01.677Z,2.10
2022-12-27T02:43:42.907Z,3.00
2022-12-27T02:45:34.170Z,2.20
2022-12-27T02:47:15.967Z,2.20
2022-12-27T02:48:56.671Z,1.93
2022-12-27T02:50:37.660Z,1.60
2022-12-27T02:52:54.752Z,1.57
2022-12-27T02:54:22.586Z,1.50
2022-12-27T02:56:13.325Z,2.13
2022-12-27T02:57:53.182Z,2.33
2022-12-27T02:59:27.224Z,1.40
2022-12-27T03:01:43.372Z,2.90
2022-12-27T03:03:24.939Z,1.93
2022-12-27T03:05:05.592Z,1.77
2022-12-27T03:06:39.657Z,1.77
2022-12-27T03:08:07.957Z,2.37
2022-12-27T03:10:06.513Z,1.80
2022-12-27T03:12:08.136Z,1.63
2022-12-27T03:14:03.739Z,1.67
2022-12-27T03:15:44.278Z,1.87
2022-12-27T03:17:14.383Z,2.13
2022-12-27T03:19:04.341Z,1.77
2022-12-27T03:20:44.808Z,2.07
2022-12-27T03:22:27.243Z,1.63
2022-12-27T03:24:13.548Z,1.87
2022-12-27T03:25:37.406Z,2.57
2022-12-27T03:27:01.406Z,1.70
2022-12-27T03:28:47.288Z,1.80
2022-12-27T03:30:29.644Z,2.40
2022-12-27T03:32:16.051Z,1.73
2022-12-27T03:33:41.703Z,2.20
2022-12-27T03:35:23.583Z,1.60
2022-12-27T03:37:04.298Z,1.80
2022-12-27T03:38:27.469Z,1.90
2022-12-27T03:40:09.784Z,1.73
2022-12-27T03:41:57.972Z,1.60
2022-12-27T03:43:20.072Z,1.53
2022-12-27T03:44:42.235Z,1.43
2022-12-27T03:46:33.722Z,2.20
2022-12-27T03:48:04.728Z,1.33
2022-12-27T03:49:48.370Z,1.30
2022-12-27T03:51:11.846Z,1.70
2022-12-27T03:52:41.847Z,1.70
2022-12-27T03:54:28.293Z,2.60
2022-12-27T03:55:50.468Z,3.30
2022-12-27T03:57:15.636Z,1.70
2022-12-27T03:58:37.706Z,1.70
2022-12-27T03:59:59.836Z,1.60
2022-12-27T04:01:21.957Z,1.90
2022-12-27T04:02:44.351Z,1.83
2022-12-27T04:04:06.682Z,1.90
2022-12-27T04:05:28.748Z,1.97
2022-12-27T04:06:50.841Z,1.93
2022-12-27T04:08:31.405Z,1.90
2022-12-27T04:10:12.107Z,2.10
2022-12-27T04:11:53.001Z,2.67
2022-12-27T04:13:33.727Z,1.90
2022-12-27T04:15:14.331Z,1.97
2022-12-27T04:16:54.820Z,1.53
2022-12-27T04:18:35.627Z,1.80
2022-12-27T04:20:16.479Z,1.97
2022-12-27T04:21:57.124Z,1.70
2022-12-27T04:23:37.822Z,1.90
2022-12-27T04:25:18.559Z,2.10
2022-12-27T04:26:58.895Z,1.70
2022-12-27T04:28:39.405Z,1.63
2022-12-27T04:30:19.879Z,2.57
2022-12-27T04:32:00.503Z,1.60
2022-12-27T04:33:41.209Z,2.03
2022-12-27T04:35:03.422Z,2.10
2022-12-27T04:36:25.474Z,1.40
2022-12-27T04:37:47.509Z,1.50
2022-12-27T04:39:09.653Z,1.60
2022-12-27T04:40:50.441Z,1.40
2022-12-27T04:42:31.184Z,1.87
2022-12-27T04:44:11.920Z,1.70
2022-12-27T04:45:52.738Z,2.30
2022-12-27T04:47:49.043Z,2.00
2022-12-27T04:49:42.193Z,1.97
2022-12-27T04:51:22.625Z,1.50
2022-12-27T04:53:03.492Z,1.60
2022-12-27T04:54:44.140Z,1.53
2022-12-27T04:56:07.072Z,1.60
2022-12-27T04:57:29.197Z,1.40
2022-12-27T04:59:09.991Z,1.70
2022-12-27T05:00:52.216Z,2.00
2022-12-27T05:02:15.324Z,1.30
2022-12-27T05:03:38.428Z,2.23
2022-12-27T05:05:00.597Z,1.50
2022-12-27T05:06:22.878Z,1.47
2022-12-27T05:08:03.414Z,2.00
2022-12-27T05:09:43.926Z,1.80
2022-12-27T05:11:25.228Z,2.13
2022-12-27T05:13:05.873Z,1.70
2022-12-27T05:14:27.891Z,1.60
2022-12-27T05:15:50.021Z,1.67
2022-12-27T05:17:12.319Z,1.60
2022-12-27T05:18:34.366Z,2.10
2022-12-27T05:19:56.433Z,1.87
2022-12-27T05:21:18.501Z,1.73
2022-12-27T05:22:59.176Z,1.80
2022-12-27T05:24:39.937Z,1.87
2022-12-27T05:26:02.174Z,1.50
2022-12-27T05:27:24.584Z,1.50
2022-12-27T05:28:47.696Z,1.97
2022-12-27T05:30:10.305Z,1.60
2022-12-27T05:31:32.742Z,1.60
2022-12-27T05:32:55.643Z,1.80
2022-12-27T05:34:17.756Z,1.97
2022-12-27T05:35:40.075Z,1.47
2022-12-27T05:37:02.135Z,1.80
2022-12-27T05:38:24.196Z,2.00
2022-12-27T05:39:46.358Z,2.00
2022-12-27T05:41:08.566Z,2.00
2022-12-27T05:42:31.728Z,2.07
2022-12-27T05:43:53.850Z,1.90
2022-12-27T05:45:16.420Z,2.20
2022-12-27T05:46:38.508Z,2.60
2022-12-27T05:48:00.686Z,2.00
2022-12-27T05:49:22.756Z,1.80
2022-12-27T05:50:44.800Z,1.97
2022-12-27T05:52:06.810Z,2.27
2022-12-27T05:53:28.882Z,2.13
2022-12-27T05:54:50.973Z,2.40
2022-12-27T05:56:19.013Z,2.20
2022-12-27T05:57:41.459Z,2.20
2022-12-27T05:59:04.672Z,2.03
2022-12-27T06:00:26.712Z,2.50
2022-12-27T06:01:48.890Z,2.43
2022-12-27T06:03:11.152Z,2.00
2022-12-27T06:04:33.301Z,2.37
2022-12-27T06:06:02.689Z,2.10
2022-12-27T06:07:24.777Z,2.40
2022-12-27T06:08:46.901Z,2.67
2022-12-27T06:10:10.017Z,3.23
2022-12-27T06:11:32.090Z,1.97
2022-12-27T06:12:54.198Z,2.67
2022-12-27T06:14:16.257Z,2.93
2022-12-27T06:15:38.363Z,2.90
2022-12-27T06:17:00.489Z,3.00
2022-12-27T06:18:22.540Z,3.10
2022-12-27T06:19:44.615Z,2.80
2022-12-27T06:21:13.124Z,2.10
2022-12-27T06:22:35.144Z,2.40
2022-12-27T06:23:57.543Z,2.37
2022-12-27T06:25:19.588Z,2.83
2022-12-27T06:26:42.763Z,2.20
2022-12-27T06:28:04.988Z,2.10
2022-12-27T06:29:27.042Z,2.60
2022-12-27T06:30:50.618Z,2.67
2022-12-27T06:32:12.694Z,2.77
2022-12-27T06:33:35.473Z,2.23
2022-12-27T06:34:57.517Z,2.60
2022-12-27T06:36:22.944Z,2.30
2022-12-27T06:37:45.059Z,2.63
2022-12-27T06:39:07.121Z,2.70
2022-12-27T06:40:29.145Z,2.27
2022-12-27T06:41:55.048Z,2.77
2022-12-27T06:43:17.118Z,2.47
2022-12-27T06:44:39.151Z,3.00
2022-12-27T06:46:04.876Z,2.37
2022-12-27T06:47:26.950Z,2.33
2022-12-27T06:48:49.041Z,2.20
2022-12-27T06:50:11.297Z,2.20
2022-12-27T06:51:34.001Z,2.50
2022-12-27T06:52:56.315Z,2.27
2022-12-27T06:54:18.349Z,2.07
2022-12-27T06:55:40.387Z,2.60
2022-12-27T06:57:02.442Z,2.77
2022-12-27T06:58:24.493Z,2.40
2022-12-27T06:59:52.382Z,2.67
2022-12-27T07:01:25.534Z,2.50
2022-12-27T07:02:48.163Z,2.50
2022-12-27T07:04:10.740Z,2.50
2022-12-27T07:05:35.699Z,2.30
2022-12-27T07:06:57.778Z,3.37
2022-12-27T07:08:20.022Z,2.43
2022-12-27T07:09:42.070Z,2.43
2022-12-27T07:11:06.970Z,2.53
2022-12-27T07:12:33.244Z,2.60
2022-12-27T07:13:58.620Z,2.03
2022-12-27T07:15:20.675Z,2.80
2022-12-27T07:16:42.946Z,2.43
2022-12-27T07:18:05.085Z,2.50
2022-12-27T07:19:27.131Z,2.27
2022-12-27T07:20:49.201Z,2.50
2022-12-27T07:22:11.262Z,2.33
2022-12-27T07:23:33.757Z,2.73
2022-12-27T07:24:55.921Z,2.33
2022-12-27T07:26:25.891Z,2.30
2022-12-27T07:27:47.978Z,2.63
2022-12-27T07:29:10.216Z,1.90
2022-12-27T07:30:32.405Z,2.20
2022-12-27T07:31:54.510Z,2.60
2022-12-27T07:33:16.629Z,2.50
2022-12-27T07:34:38.669Z,2.60
2022-12-27T07:36:01.505Z,2.80
2022-12-27T07:37:23.918Z,2.80
2022-12-27T07:38:46.126Z,3.03
2022-12-27T07:40:08.847Z,2.50
2022-12-27T07:41:31.016Z,3.20
2022-12-27T07:42:53.023Z,2.70
2022-12-27T07:44:15.110Z,2.23
2022-12-27T07:45:37.168Z,3.17
2022-12-27T07:46:59.261Z,2.27
2022-12-27T07:48:21.343Z,2.60
2022-12-27T07:49:43.451Z,2.40
2022-12-27T07:51:06.256Z,2.50
2022-12-27T07:52:28.371Z,2.10
2022-12-27T07:53:51.184Z,2.53
2022-12-27T07:55:13.263Z,2.27
2022-12-27T07:56:35.663Z,2.57
2022-12-27T07:57:57.974Z,2.10
2022-12-27T07:59:20.114Z,2.90
2022-12-27T08:00:42.444Z,2.73
2022-12-27T08:02:04.727Z,2.73
2022-12-27T08:03:26.931Z,2.57
2022-12-27T08:04:49.052Z,2.47
2022-12-27T08:06:29.931Z,2.50
2022-12-27T08:07:52.068Z,3.10
2022-12-27T08:09:16.660Z,2.40
2022-12-27T08:10:38.725Z,3.00
2022-12-27T08:12:00.868Z,2.80
2022-12-27T08:13:23.280Z,2.80
2022-12-27T08:14:45.357Z,2.90
2022-12-27T08:16:09.384Z,2.97
2022-12-27T08:17:31.616Z,2.27
2022-12-27T08:18:53.725Z,3.23
2022-12-27T08:20:16.226Z,2.60
2022-12-27T08:21:38.638Z,2.60
2022-12-27T08:23:00.746Z,3.30
2022-12-27T08:24:22.864Z,2.27
2022-12-27T08:25:49.050Z,2.60
2022-12-27T08:27:11.977Z,2.80
2022-12-27T08:28:34.227Z,3.30
2022-12-27T08:29:56.690Z,3.10
2022-12-27T08:31:19.820Z,2.70
2022-12-27T08:32:41.912Z,2.80
2022-12-27T08:34:04.140Z,3.70
2022-12-27T08:35:51.498Z,2.27
2022-12-27T08:37:08.961Z,2.57
2022-12-27T08:38:31.053Z,2.53
2022-12-27T08:39:55.441Z,2.60
2022-12-27T08:41:21.896Z,2.53
2022-12-27T08:42:43.952Z,2.73
2022-12-27T08:44:07.118Z,3.37
2022-12-27T08:45:29.139Z,2.37
2022-12-27T08:46:51.443Z,2.20
2022-12-27T08:48:13.508Z,2.83
2022-12-27T08:49:35.685Z,2.40
2022-12-27T08:50:57.893Z,2.57
2022-12-27T08:52:20.091Z,2.00
2022-12-27T08:53:42.356Z,2.40
2022-12-27T08:55:05.215Z,2.07
2022-12-27T08:56:27.322Z,2.60
2022-12-27T08:57:49.437Z,2.40
2022-12-27T08:59:11.476Z,2.33
2022-12-27T09:00:33.535Z,2.60
2022-12-27T09:01:55.656Z,2.63
2022-12-27T09:03:20.010Z,2.13
2022-12-27T09:04:42.108Z,2.03
2022-12-27T09:06:23.860Z,2.13
2022-12-27T09:07:47.095Z,2.27
2022-12-27T09:09:09.200Z,2.33
2022-12-27T09:10:31.261Z,1.60
2022-12-27T09:11:53.292Z,1.43
2022-12-27T09:13:15.351Z,1.87
2022-12-27T09:14:37.765Z,1.70
2022-12-27T09:15:59.939Z,1.90
2022-12-27T09:17:22.037Z,1.90
2022-12-27T09:18:46.903Z,2.40
2022-12-27T09:20:12.187Z,1.40
2022-12-27T09:21:35.041Z,1.60
2022-12-27T09:22:59.234Z,1.53
2022-12-27T09:24:21.355Z,1.50
2022-12-27T09:25:44.749Z,1.60
2022-12-27T09:27:07.455Z,2.07
2022-12-27T09:28:29.524Z,1.50
2022-12-27T09:29:51.643Z,1.37
2022-12-27T09:31:15.207Z,1.80
2022-12-27T09:32:37.298Z,1.60
2022-12-27T09:33:59.907Z,1.20
2022-12-27T09:35:21.996Z,1.30
2022-12-27T09:36:44.148Z,1.60
2022-12-27T09:38:06.199Z,1.70
2022-12-27T09:39:28.252Z,1.30
2022-12-27T09:40:55.516Z,1.50
2022-12-27T09:42:57.785Z,2.00
2022-12-27T09:44:39.702Z,1.97
2022-12-27T09:46:02.793Z,1.50
2022-12-27T09:47:48.976Z,1.67
2022-12-27T09:49:16.646Z,1.50
2022-12-27T09:50:51.051Z,1.37
2022-12-27T09:52:17.678Z,1.80
2022-12-27T09:54:11.908Z,1.50
2022-12-27T09:55:51.928Z,1.43
2022-12-27T09:57:46.746Z,1.63
2022-12-27T09:59:27.905Z,1.20
2022-12-27T10:00:51.228Z,1.20
2022-12-27T10:02:33.311Z,1.17
2022-12-27T10:03:55.492Z,1.63
2022-12-27T10:05:24.531Z,1.27
2022-12-27T10:06:49.676Z,1.00
2022-12-27T10:08:55.993Z,1.40
2022-12-27T10:10:23.887Z,1.30
2022-12-27T10:11:54.780Z,1.17
2022-12-27T10:13:48.142Z,1.00
2022-12-27T10:15:16.116Z,1.30
2022-12-27T10:17:04.272Z,1.30
2022-12-27T10:18:29.258Z,1.27
2022-12-27T10:20:08.688Z,1.13
2022-12-27T10:21:36.717Z,1.40
2022-12-27T10:23:10.135Z,1.40
2022-12-27T10:24:56.343Z,1.60
2022-12-27T10:26:20.700Z,1.00
2022-12-27T10:27:42.828Z,1.00
2022-12-27T10:29:20.702Z,1.40
2022-12-27T10:30:43.957Z,1.10
2022-12-27T10:32:06.092Z,1.23
2022-12-27T10:33:29.957Z,0.90
2022-12-27T10:34:59.994Z,1.27
2022-12-27T10:36:26.147Z,1.10
2022-12-27T10:37:49.360Z,0.90
2022-12-27T10:39:20.521Z,0.97
2022-12-27T10:40:57.615Z,1.20
2022-12-27T10:42:41.771Z,1.37
2022-12-27T10:44:12.714Z,1.00
2022-12-27T10:45:39.447Z,1.07
2022-12-27T10:47:01.859Z,1.40
2022-12-27T10:48:47.488Z,1.00
2022-12-27T10:50:13.602Z,0.93
2022-12-27T10:51:38.472Z,1.03
2022-12-27T10:53:00.613Z,1.23
2022-12-27T10:54:30.086Z,1.00
2022-12-27T10:55:52.253Z,1.30
2022-12-27T10:57:28.042Z,1.23
2022-12-27T10:58:58.578Z,1.03
2022-12-27T11:00:23.300Z,1.00
2022-12-27T11:01:47.150Z,1.20
2022-12-27T11:03:19.046Z,0.97
2022-12-27T11:04:59.316Z,1.10
2022-12-27T11:06:24.451Z,0.90
2022-12-27T11:07:46.493Z,1.20
2022-12-27T11:09:38.818Z,1.20
2022-12-27T11:11:22.659Z,1.10
2022-12-27T11:13:05.224Z,1.00
2022-12-27T11:14:27.299Z,1.30
2022-12-27T11:15:58.933Z,1.33
2022-12-27T11:17:25.603Z,1.20
2022-12-27T11:18:52.450Z,0.97
2022-12-27T11:20:30.602Z,1.03
2022-12-27T11:21:54.540Z,1.00
2022-12-27T11:23:22.322Z,1.40
2022-12-27T11:24:47.333Z,0.90
2022-12-27T11:26:25.275Z,1.10
2022-12-27T11:27:51.986Z,1.13
2022-12-27T11:29:18.027Z,1.10
2022-12-27T11:30:41.656Z,1.00
2022-12-27T11:32:08.635Z,1.20
2022-12-27T11:33:37.527Z,1.50
2022-12-27T11:34:59.642Z,1.43
2022-12-27T11:36:34.552Z,1.20
2022-12-27T11:37:57.163Z,1.57
2022-12-27T11:39:45.025Z,1.20
2022-12-27T11:41:23.226Z,1.30
2022-12-27T11:42:58.165Z,1.20
2022-12-27T11:44:31.583Z,1.20
2022-12-27T11:45:55.831Z,1.17
2022-12-27T11:47:27.513Z,3.40
2022-12-27T11:48:56.051Z,1.50
2022-12-27T11:50:27.052Z,1.60
2022-12-27T11:52:11.023Z,1.20
2022-12-27T11:53:52.416Z,2.37
2022-12-27T11:55:33.268Z,1.70
2022-12-27T11:57:04.088Z,1.07
2022-12-27T11:59:01.725Z,1.60
2022-12-27T12:00:26.829Z,1.10
2022-12-27T12:02:31.889Z,1.10
2022-12-27T12:04:22.172Z,0.77
2022-12-27T12:06:02.919Z,1.13
2022-12-27T12:07:37.075Z,0.90
2022-12-27T12:09:09.019Z,1.03
2022-12-27T12:10:31.214Z,0.90
2022-12-27T12:11:58.714Z,1.10
2022-12-27T12:13:36.506Z,1.03
2022-12-27T12:15:06.150Z,1.30
2022-12-27T12:16:33.973Z,1.43
2022-12-27T12:18:17.133Z,1.23
2022-12-27T12:20:07.467Z,0.90
2022-12-27T12:21:50.550Z,1.17
2022-12-27T12:23:46.859Z,1.47
2022-12-27T12:25:30.401Z,0.90
2022-12-27T12:27:19.978Z,1.10
2022-12-27T12:29:03.334Z,0.97
2022-12-27T12:30:53.372Z,1.00
2022-12-27T12:32:56.685Z,1.00
2022-12-27T12:34:27.477Z,1.20
2022-12-27T12:36:23.849Z,0.80
2022-12-27T12:38:13.905Z,1.00
2022-12-27T12:40:00.375Z,0.63
2022-12-27T12:41:56.214Z,0.97
2022-12-27T12:43:45.532Z,0.80
2022-12-27T12:45:31.964Z,0.87
2022-12-27T12:47:01.930Z,1.10
2022-12-27T12:48:51.396Z,0.90
2022-12-27T12:50:21.597Z,0.70
2022-12-27T12:51:58.739Z,1.00
2022-12-27T12:53:25.835Z,0.60
2022-12-27T12:55:24.346Z,1.10
2022-12-27T12:57:05.344Z,0.90
2022-12-27T12:58:51.692Z,0.80
2022-12-27T13:00:28.440Z,0.87
2022-12-27T13:01:59.114Z,0.70
2022-12-27T13:03:46.127Z,0.83
2022-12-27T13:05:44.403Z,1.00
2022-12-27T13:07:22.187Z,0.83
2022-12-27T13:09:03.527Z,0.70
2022-12-27T13:10:58.374Z,0.83
2022-12-27T13:12:47.523Z,0.80
2022-12-27T13:14:18.936Z,0.80
2022-12-27T13:16:02.331Z,0.80
2022-12-27T13:17:46.072Z,1.07
2022-12-27T13:19:13.971Z,1.20
2022-12-27T13:20:55.421Z,2.20
2022-12-27T13:22:29.990Z,1.40
2022-12-27T13:23:57.072Z,0.80
2022-12-27T13:25:43.119Z,0.90
2022-12-27T13:27:23.873Z,0.90
2022-12-27T13:28:55.829Z,0.83
2022-12-27T13:30:30.657Z,0.73
2022-12-27T13:32:09.488Z,1.20
2022-12-27T13:33:52.236Z,0.90
2022-12-27T13:35:23.171Z,1.23
2022-12-27T13:37:04.621Z,1.00
2022-12-27T13:38:49.930Z,0.93
2022-12-27T13:40:14.701Z,1.00
2022-12-27T13:41:49.453Z,1.20
2022-12-27T13:43:34.794Z,1.30
2022-12-27T13:45:24.417Z,1.17
2022-12-27T13:47:05.191Z,1.30
2022-12-27T13:48:42.283Z,1.20
2022-12-27T13:50:32.295Z,1.00
2022-12-27T13:52:00.971Z,1.17
2022-12-27T13:53:35.073Z,1.00
2022-12-27T13:55:23.416Z,1.07
2022-12-27T13:57:11.546Z,1.10
2022-12-27T13:58:36.490Z,1.00
2022-12-27T14:00:20.632Z,1.50
2022-12-27T14:01:59.344Z,1.20
2022-12-27T14:03:33.551Z,1.40
2022-12-27T14:05:01.719Z,1.13
2022-12-27T14:06:37.239Z,1.47
2022-12-27T14:08:36.908Z,1.27
2022-12-27T14:10:11.592Z,1.40
2022-12-27T14:11:39.581Z,1.20
2022-12-27T14:13:03.626Z,1.13
2022-12-27T14:14:27.917Z,1.30
2022-12-27T14:16:17.692Z,1.40
2022-12-27T14:18:05.139Z,1.60
2022-12-27T14:19:55.225Z,1.60
2022-12-27T14:21:36.053Z,1.40
2022-12-27T14:23:20.487Z,1.27
2022-12-27T14:25:09.427Z,1.60
2022-12-27T14:26:41.728Z,1.53
2022-12-27T14:28:06.812Z,1.20
2022-12-27T14:29:49.044Z,1.30
2022-12-27T14:31:28.713Z,1.30
2022-12-27T14:33:15.228Z,1.60
2022-12-27T14:34:53.284Z,1.30
2022-12-27T14:36:30.192Z,1.33
2022-12-27T14:38:20.467Z,1.80
2022-12-27T14:40:19.767Z,2.13
2022-12-27T14:42:14.962Z,1.57
2022-12-27T14:44:10.796Z,1.33
2022-12-27T14:45:57.224Z,1.50
2022-12-27T14:47:25.361Z,1.50
2022-12-27T14:49:11.741Z,2.23
2022-12-27T14:51:41.537Z,2.57
2022-12-27T14:53:24.086Z,2.80
2022-12-27T14:55:03.654Z,1.77
2022-12-27T14:56:26.005Z,1.43
2022-12-27T14:58:16.138Z,1.40
2022-12-27T15:00:14.900Z,1.57
2022-12-27T15:01:56.558Z,1.43
2022-12-27T15:03:45.958Z,2.03
2022-12-27T15:05:16.864Z,2.00
2022-12-27T15:07:02.277Z,2.03
2022-12-27T15:09:06.816Z,2.33
2022-12-27T15:10:50.356Z,2.20
2022-12-27T15:12:25.784Z,1.70
2022-12-27T15:14:05.857Z,1.47
2022-12-27T15:15:43.368Z,1.30
2022-12-27T15:17:23.346Z,1.47
2022-12-27T15:19:20.056Z,1.17
2022-12-27T15:20:44.837Z,1.23
2022-12-27T15:22:25.051Z,1.30
2022-12-27T15:24:09.843Z,1.77
2022-12-27T15:25:56.008Z,1.70
2022-12-27T15:27:37.975Z,1.83
2022-12-27T15:29:58.548Z,1.10
2022-12-27T15:32:10.002Z,1.30
2022-12-27T15:33:37.987Z,1.37
2022-12-27T15:35:18.257Z,1.67
2022-12-27T15:36:45.592Z,1.53
2022-12-27T15:38:37.702Z,1.67
2022-12-27T15:40:00.549Z,1.77
2022-12-27T15:41:34.127Z,1.87
2022-12-27T15:43:20.662Z,1.90
2022-12-27T15:44:45.324Z,1.30
2022-12-27T15:46:40.945Z,1.73
2022-12-27T15:48:11.738Z,1.20
2022-12-27T15:49:48.495Z,1.70
2022-12-27T15:51:13.461Z,1.77
2022-12-27T15:52:56.460Z,1.17
2022-12-27T15:54:46.437Z,1.40
2022-12-27T15:56:45.451Z,2.00
2022-12-27T15:58:19.528Z,1.37
2022-12-27T15:59:45.891Z,1.20
2022-12-27T16:01:22.091Z,1.33
2022-12-27T16:02:48.778Z,1.37
2022-12-27T16:04:59.155Z,1.40
2022-12-27T16:06:36.330Z,1.20
2022-12-27T16:07:58.370Z,2.43
2022-12-27T16:09:23.588Z,1.60
2022-12-27T16:10:48.057Z,1.40
2022-12-27T16:12:15.177Z,1.80
2022-12-27T16:13:42.734Z,1.43
2022-12-27T16:15:43.503Z,2.47
2022-12-27T16:17:24.699Z,2.40
2022-12-27T16:19:10.164Z,1.93
2022-12-27T16:20:33.064Z,1.83
2022-12-27T16:21:55.358Z,2.20
2022-12-27T16:23:23.898Z,2.13
2022-12-27T16:24:45.983Z,2.10
2022-12-27T16:26:29.895Z,1.90
2022-12-27T16:28:02.440Z,2.27
2022-12-27T16:29:32.762Z,2.83
2022-12-27T16:30:57.696Z,2.67
2022-12-27T16:32:25.286Z,2.30
2022-12-27T16:33:47.673Z,2.30
2022-12-27T16:35:16.478Z,2.77
2022-12-27T16:36:45.880Z,2.60
2022-12-27T16:38:22.250Z,2.90
2022-12-27T16:40:01.207Z,2.93
2022-12-27T16:41:29.057Z,2.80
2022-12-27T16:42:57.170Z,2.80
2022-12-27T16:44:25.154Z,3.83
2022-12-27T16:46:14.096Z,4.20
2022-12-27T16:47:47.226Z,5.33
2022-12-27T16:49:27.844Z,4.23
2022-12-27T16:51:08.218Z,4.07
2022-12-27T16:52:41.456Z,4.83
2022-12-27T16:54:22.112Z,4.27
2022-12-27T16:56:02.671Z,4.10
2022-12-27T16:57:24.898Z,3.37
2022-12-27T16:58:48.249Z,4.03
2022-12-27T17:00:13.547Z,3.20
2022-12-27T17:01:35.703Z,3.37
2022-12-27T17:03:20.834Z,2.77
2022-12-27T17:04:49.933Z,2.83
2022-12-27T17:06:34.328Z,4.13
2022-12-27T17:07:56.862Z,3.67
2022-12-27T17:09:21.687Z,3.57
2022-12-27T17:10:52.673Z,3.43
2022-12-27T17:12:17.942Z,2.83
2022-12-27T17:13:47.715Z,3.07
2022-12-27T17:15:13.563Z,3.47
2022-12-27T17:16:49.988Z,3.57
2022-12-27T17:18:32.525Z,3.40
2022-12-27T17:20:00.041Z,4.10
2022-12-27T17:21:33.956Z,4.23
2022-12-27T17:22:57.549Z,3.90
2022-12-27T17:24:22.198Z,4.23
2022-12-27T17:25:51.866Z,3.87
2022-12-27T17:27:35.112Z,4.37
2022-12-27T17:29:05.269Z,3.40
2022-12-27T17:30:33.270Z,3.33
2022-12-27T17:32:33.306Z,3.40
2022-12-27T17:34:01.235Z,3.43
2022-12-27T17:36:11.608Z,3.50
2022-12-27T17:37:45.396Z,2.97
2022-12-27T17:39:22.142Z,3.90
2022-12-27T17:41:09.052Z,3.07
2022-12-27T17:43:19.515Z,3.47
2022-12-27T17:45:09.785Z,3.37
2022-12-27T17:46:49.859Z,3.53
2022-12-27T17:48:15.082Z,3.70
2022-12-27T17:49:37.853Z,3.53
2022-12-27T17:51:10.443Z,3.90
2022-12-27T17:52:50.890Z,3.97
2022-12-27T17:54:42.802Z,3.90
2022-12-27T17:56:29.369Z,4.17
2022-12-27T17:57:56.327Z,3.30
2022-12-27T17:59:26.684Z,4.03
2022-12-27T18:00:58.978Z,4.53
2022-12-27T18:02:36.441Z,3.97
2022-12-27T18:03:59.040Z,3.40
2022-12-27T18:05:28.945Z,3.30
2022-12-27T18:06:58.327Z,3.80
2022-12-27T18:08:28.149Z,3.90
2022-12-27T18:09:54.616Z,3.93
2022-12-27T18:11:23.519Z,4.03
2022-12-27T18:12:53.783Z,5.53
2022-12-27T18:14:16.920Z,4.40
2022-12-27T18:15:44.573Z,4.80
2022-12-27T18:17:06.667Z,3.63
2022-12-27T18:18:32.938Z,3.90
2022-12-27T18:19:55.273Z,4.70
2022-12-27T18:21:26.419Z,5.47
2022-12-27T18:22:48.542Z,3.83
2022-12-27T18:24:32.018Z,3.87
2022-12-27T18:26:16.005Z,4.37
2022-12-27T18:27:38.065Z,3.70
2022-12-27T18:29:00.261Z,4.83
2022-12-27T18:30:22.301Z,3.70
2022-12-27T18:31:44.555Z,3.90
2022-12-27T18:33:07.311Z,4.60
2022-12-27T18:34:54.299Z,3.80
2022-12-27T18:36:42.520Z,3.97
2022-12-27T18:38:08.188Z,4.13
2022-12-27T18:39:40.574Z,3.70
2022-12-27T18:41:06.731Z,4.57
2022-12-27T18:42:40.301Z,4.27
2022-12-27T18:44:04.164Z,3.80
2022-12-27T18:45:32.311Z,4.03
2022-12-27T18:46:57.573Z,4.07
2022-12-27T18:48:19.792Z,4.37
2022-12-27T18:49:42.432Z,3.70
2022-12-27T18:51:04.654Z,3.83
2022-12-27T18:52:34.729Z,4.50
2022-12-27T18:53:56.865Z,3.80
2022-12-27T18:55:21.903Z,4.30
2022-12-27T18:56:44.156Z,3.60
2022-12-27T18:58:20.173Z,4.20
2022-12-27T18:59:42.501Z,5.13
2022-12-27T19:01:30.640Z,5.30
2022-12-27T19:03:11.303Z,4.60
2022-12-27T19:04:33.910Z,4.70
2022-12-27T19:06:00.800Z,4.50
2022-12-27T19:07:22.955Z,4.90
2022-12-27T19:08:46.629Z,4.47
2022-12-27T19:10:29.432Z,4.10
2022-12-27T19:11:55.132Z,4.10
2022-12-27T19:13:27.957Z,4.00
2022-12-27T19:14:50.445Z,3.53
2022-12-27T19:16:24.220Z,3.87
2022-12-27T19:17:49.292Z,3.40
2022-12-27T19:19:20.509Z,4.10
2022-12-27T19:20:42.837Z,3.90
2022-12-27T19:22:27.959Z,4.00
2022-12-27T19:23:50.343Z,3.43
2022-12-27T19:25:32.816Z,3.87
2022-12-27T19:26:58.038Z,3.40
2022-12-27T19:28:27.457Z,3.50
2022-12-27T19:29:51.539Z,3.93
2022-12-27T19:31:18.179Z,3.97
2022-12-27T19:32:40.803Z,3.30
2022-12-27T19:34:08.406Z,3.70
2022-12-27T19:35:30.499Z,3.37
2022-12-27T19:36:54.664Z,3.60
2022-12-27T19:38:23.629Z,3.73
2022-12-27T19:39:47.573Z,3.37
2022-12-27T19:41:13.550Z,3.90
2022-12-27T19:42:35.794Z,4.17
2022-12-27T19:43:57.960Z,3.93
2022-12-27T19:45:20.730Z,3.40
2022-12-27T19:46:42.776Z,3.70
2022-12-27T19:48:07.373Z,3.47
2022-12-27T19:49:42.883Z,3.37
2022-12-27T19:51:06.827Z,3.43
2022-12-27T19:52:29.050Z,4.30
2022-12-27T19:53:57.544Z,3.73
2022-12-27T19:55:24.482Z,3.57
2022-12-27T19:56:47.476Z,3.77
2022-12-27T19:58:27.311Z,4.07
2022-12-27T19:59:49.397Z,3.53
2022-12-27T20:01:11.531Z,3.87
2022-12-27T20:02:33.768Z,4.50
2022-12-27T20:03:55.938Z,4.20
2022-12-27T20:05:18.212Z,3.40
2022-12-27T20:07:01.220Z,4.27
2022-12-27T20:08:36.751Z,3.97
2022-12-27T20:09:59.011Z,3.40
2022-12-27T20:11:22.694Z,3.87
2022-12-27T20:12:44.814Z,4.10
2022-12-27T20:14:07.213Z,3.77
2022-12-27T20:15:31.157Z,4.00